Time;durP1;ratioP1;P1;durP2;ratioP2;P2;SDS_P1;SDS_P2;PMS_P1;PMS_P2;Temp;Humidity;BMP_temperature;BMP_pressure;BME280_temperature;BME280_humidity;BME280_pressure;Samples;Min_cycle;Max_cycle;Signal;HPM_P1;HPM_P2
2022/03/20 00:00:29;;;;;;;13.32;3.83;;;;;;;;;;5029115;28;20060;-66
2022/03/20 00:03:06;;;;;;;9.60;3.50;;;;;;;;;;4996460;28;20053;-66
2022/03/20 00:05:41;;;;;;;9.90;3.92;;;;;;;;;;5028820;28;20053;-66
2022/03/20 00:08:14;;;;;;;10.45;4.22;;;;;;;;;;5028795;28;20053;-66
2022/03/20 00:10:51;;;;;;;15.48;4.47;;;;;;;;;;5028593;28;20161;-66
2022/03/20 00:13:24;;;;;;;12.30;4.72;;;;;;;;;;5048171;28;20057;-66
2022/03/20 00:15:59;;;;;;;13.25;4.18;;;;;;;;;;5048730;28;20162;-66
2022/03/20 00:18:30;;;;;;;14.05;4.40;;;;;;;;;;5015467;28;20053;-66
2022/03/20 00:21:01;;;;;;;15.88;4.43;;;;;;;;;;5048626;28;20400;-66
2022/03/20 00:23:34;;;;;;;;;;;;;;;;;;5048939;28;20508;-66
2022/03/20 00:26:08;;;;;;;8.15;4.22;;;;;;;;;;5016717;28;19920;-66
2022/03/20 00:28:42;;;;;;;13.15;4.10;;;;;;;;;;5048531;28;20045;-66
2022/03/20 00:31:13;;;;;;;6.43;3.88;;;;;;;;;;5016671;28;20089;-67
2022/03/20 00:33:44;;;;;;;11.88;4.35;;;;;;;;;;5048572;28;20049;-66
2022/03/20 00:36:16;;;;;;;11.65;4.40;;;;;;;;;;5008501;28;20050;-66
2022/03/20 00:38:49;;;;;;;10.80;4.50;;;;;;;;;;5008376;28;20068;-66
2022/03/20 00:41:21;;;;;;;10.70;4.03;;;;;;;;;;4960774;28;20065;-66
2022/03/20 00:43:51;;;;;;;13.50;4.07;;;;;;;;;;5008536;28;20066;-66
2022/03/20 00:46:29;;;;;;;10.10;4.22;;;;;;;;;;4991964;28;20411;-66
2022/03/20 00:49:02;;;;;;;14.98;4.30;;;;;;;;;;5008737;28;20061;-66
2022/03/20 00:51:38;;;;;;;8.65;4.10;;;;;;;;;;5008474;28;20069;-66
2022/03/20 00:54:08;;;;;;;8.75;4.70;;;;;;;;;;5008418;28;20068;-66
2022/03/20 00:56:42;;;;;;;12.73;4.35;;;;;;;;;;5008230;28;20069;-66
2022/03/20 00:59:16;;;;;;;11.50;4.32;;;;;;;;;;5008627;28;20054;-66
2022/03/20 01:01:46;;;;;;;10.38;4.60;;;;;;;;;;4988553;28;20414;-66
2022/03/20 01:04:16;;;;;;;10.40;4.15;;;;;;;;;;4969034;28;20050;-66
2022/03/20 01:06:49;;;;;;;11.65;4.47;;;;;;;;;;4964193;28;20057;-66
2022/03/20 01:09:20;;;;;;;8.18;4.55;;;;;;;;;;5008466;28;20081;-66
2022/03/20 01:11:57;;;;;;;9.95;4.50;;;;;;;;;;5024663;28;20093;-66
2022/03/20 01:14:34;;;;;;;8.07;4.05;;;;;;;;;;4993159;28;20054;-66
2022/03/20 01:17:04;;;;;;;10.40;4.30;;;;;;;;;;5008196;28;20058;-66
2022/03/20 01:19:37;;;;;;;10.80;4.22;;;;;;;;;;4991901;28;21047;-66
2022/03/20 01:22:09;;;;;;;15.10;4.32;;;;;;;;;;5024746;28;20531;-66
2022/03/20 01:24:41;;;;;;;10.70;4.45;;;;;;;;;;5008315;28;20057;-66
2022/03/20 01:27:12;;;;;;;12.73;4.22;;;;;;;;;;5008164;28;20063;-66
2022/03/20 01:29:44;;;;;;;10.55;4.13;;;;;;;;;;4991651;28;20117;-66
2022/03/20 01:32:16;;;;;;;8.85;3.85;;;;;;;;;;4991662;28;20042;-66
2022/03/20 01:34:47;;;;;;;8.35;4.30;;;;;;;;;;5008454;28;20062;-66
2022/03/20 01:37:17;;;;;;;10.32;4.55;;;;;;;;;;5008474;28;20128;-66
2022/03/20 01:39:52;;;;;;;8.05;4.18;;;;;;;;;;5035869;28;20394;-66
2022/03/20 01:42:24;;;;;;;12.35;4.63;;;;;;;;;;5035666;28;20049;-66
2022/03/20 01:44:56;;;;;;;13.32;4.10;;;;;;;;;;5047752;28;20065;-66
2022/03/20 01:47:26;;;;;;;12.98;4.28;;;;;;;;;;5031320;28;20529;-67
2022/03/20 01:50:00;;;;;;;11.65;4.22;;;;;;;;;;5027794;28;20382;-67
2022/03/20 01:52:33;;;;;;;12.25;4.45;;;;;;;;;;5030767;28;20050;-67
2022/03/20 01:55:08;;;;;;;10.85;4.10;;;;;;;;;;4999022;28;20046;-67
2022/03/20 01:57:42;;;;;;;12.07;4.57;;;;;;;;;;5031054;28;20062;-67
2022/03/20 02:00:21;;;;;;;9.80;3.90;;;;;;;;;;5030989;28;20049;-67
2022/03/20 02:02:54;;;;;;;14.07;4.60;;;;;;;;;;5031032;28;20053;-67
2022/03/20 02:05:26;;;;;;;13.95;4.72;;;;;;;;;;5031086;28;20050;-66
2022/03/20 02:07:56;;;;;;;8.77;4.07;;;;;;;;;;5030713;28;20421;-67
2022/03/20 02:10:35;;;;;;;;;;;;;;;;;;5031545;28;20053;-67
2022/03/20 02:13:10;;;;;;;9.15;4.07;;;;;;;;;;5030954;28;19921;-67
2022/03/20 02:15:41;;;;;;;9.07;4.03;;;;;;;;;;5030499;28;20061;-66
2022/03/20 02:18:11;;;;;;;13.73;4.32;;;;;;;;;;4966392;28;20448;-67
2022/03/20 02:20:53;;;;;;;9.38;4.40;;;;;;;;;;5046264;28;20079;-67
2022/03/20 02:23:27;;;;;;;10.77;4.43;;;;;;;;;;5050709;28;20524;-67
2022/03/20 02:26:03;;;;;;;10.70;4.47;;;;;;;;;;5050638;28;20552;-66
2022/03/20 02:28:33;;;;;;;12.55;4.25;;;;;;;;;;5050492;28;20057;-67
2022/03/20 02:31:08;;;;;;;8.75;4.35;;;;;;;;;;5033932;28;20088;-67
2022/03/20 02:33:40;;;;;;;10.23;4.32;;;;;;;;;;5001092;28;20445;-67
2022/03/20 02:36:11;;;;;;;11.95;4.75;;;;;;;;;;5033567;28;20056;-67
2022/03/20 02:38:41;;;;;;;19.67;4.78;;;;;;;;;;5063568;28;20068;-67
2022/03/20 02:41:14;;;;;;;11.30;4.53;;;;;;;;;;5090371;28;20492;-67
2022/03/20 02:43:51;;;;;;;13.45;5.13;;;;;;;;;;5049881;28;20566;-67
2022/03/20 02:46:25;;;;;;;12.00;4.45;;;;;;;;;;5050006;28;20061;-67
2022/03/20 02:48:56;;;;;;;10.05;4.50;;;;;;;;;;5033899;28;20064;-67
2022/03/20 02:51:26;;;;;;;10.93;4.32;;;;;;;;;;5049802;28;20048;-67
2022/03/20 02:54:01;;;;;;;14.07;5.10;;;;;;;;;;5000947;28;20433;-67
2022/03/20 02:56:34;;;;;;;15.05;4.88;;;;;;;;;;5049665;28;20053;-67
2022/03/20 02:59:07;;;;;;;13.40;4.80;;;;;;;;;;5034002;28;20049;-67
2022/03/20 03:01:37;;;;;;;11.40;4.78;;;;;;;;;;5049724;28;20492;-67
2022/03/20 03:04:10;;;;;;;11.35;4.35;;;;;;;;;;5049692;28;20057;-67
2022/03/20 03:06:48;;;;;;;15.18;4.88;;;;;;;;;;5049689;28;20123;-66
2022/03/20 03:12:08;;;;;;;12.43;4.65;;;;;;;;;;5029872;28;20041;-67
2022/03/20 03:17:32;;;;;;;14.25;4.80;;;;;;;;;;5029800;28;20049;-68
2022/03/20 03:20:04;;;;;;;13.18;4.78;;;;;;;;;;4965579;28;20061;-67
2022/03/20 03:22:37;;;;;;;11.65;4.85;;;;;;;;;;5049632;28;20409;-67
2022/03/20 03:25:10;;;;;;;15.40;4.93;;;;;;;;;;5016287;28;20056;-67
2022/03/20 03:27:42;;;;;;;15.77;4.80;;;;;;;;;;5049468;28;20048;-67
2022/03/20 03:30:16;;;;;;;16.88;5.15;;;;;;;;;;5069377;28;20053;-67
2022/03/20 03:32:47;;;;;;;14.32;4.70;;;;;;;;;;5069386;28;20060;-67
2022/03/20 03:38:11;;;;;;;9.07;4.15;;;;;;;;;;5069137;28;20053;-67
2022/03/20 03:40:46;;;;;;;11.68;4.72;;;;;;;;;;5019530;28;20076;-67
2022/03/20 03:43:19;;;;;;;11.55;4.85;;;;;;;;;;5068783;28;20049;-67
2022/03/20 03:45:53;;;;;;;11.48;4.43;;;;;;;;;;5053139;28;20505;-66
2022/03/20 03:48:25;;;;;;;15.48;4.40;;;;;;;;;;5035429;28;20426;-67
2022/03/20 03:50:57;;;;;;;10.23;5.00;;;;;;;;;;5048531;28;20052;-67
2022/03/20 03:53:27;;;;;;;12.70;4.65;;;;;;;;;;5048718;28;20067;-67
2022/03/20 03:55:57;;;;;;;12.35;4.70;;;;;;;;;;4989344;28;20058;-67
2022/03/20 03:58:32;;;;;;;15.57;4.95;;;;;;;;;;4989187;28;20062;-67
2022/03/20 04:01:05;;;;;;;10.73;4.40;;;;;;;;;;4989450;28;20062;-67
2022/03/20 04:03:35;;;;;;;13.32;4.97;;;;;;;;;;4989359;28;20522;-67
2022/03/20 04:06:09;;;;;;;12.25;5.18;;;;;;;;;;4989320;28;20430;-67
2022/03/20 04:08:43;;;;;;;18.40;5.13;;;;;;;;;;4989590;28;20050;-67
2022/03/20 04:11:13;;;;;;;12.63;4.75;;;;;;;;;;4989500;28;20046;-66
2022/03/20 04:13:43;;;;;;;11.65;5.22;;;;;;;;;;4988946;28;20065;-67
2022/03/20 04:16:16;;;;;;;14.40;5.00;;;;;;;;;;4989179;28;20407;-67
2022/03/20 04:18:50;;;;;;;15.82;5.15;;;;;;;;;;4989090;28;20054;-67
2022/03/20 04:21:22;;;;;;;8.55;4.60;;;;;;;;;;4973033;28;20046;-67
2022/03/20 04:23:55;;;;;;;12.68;4.75;;;;;;;;;;4989122;28;20058;-67
2022/03/20 04:26:25;;;;;;;12.13;5.50;;;;;;;;;;4989311;28;20089;-66
2022/03/20 04:28:56;;;;;;;13.68;4.93;;;;;;;;;;5014221;28;20425;-66
2022/03/20 04:31:27;;;;;;;12.35;4.90;;;;;;;;;;5028606;28;20049;-67
2022/03/20 04:34:02;;;;;;;12.18;5.03;;;;;;;;;;5056434;28;20049;-67
2022/03/20 04:36:34;;;;;;;9.10;5.05;;;;;;;;;;5068133;28;20044;-67
2022/03/20 04:39:07;;;;;;;9.70;4.95;;;;;;;;;;5069643;28;20420;-66
2022/03/20 04:41:41;;;;;;;14.60;5.32;;;;;;;;;;5070746;28;20382;-66
2022/03/20 04:44:14;;;;;;;16.23;4.22;;;;;;;;;;5020139;28;20055;-67
2022/03/20 04:46:45;;;;;;;10.85;4.55;;;;;;;;;;5035102;28;20053;-67
2022/03/20 05:00:41;;;;;;;9.63;4.60;;;;;;;;;;4937272;28;20555;-66
2022/03/20 05:03:12;;;;;;;8.68;4.30;;;;;;;;;;4969349;28;20067;-67
2022/03/20 05:05:48;;;;;;;10.27;4.60;;;;;;;;;;4969201;28;20415;-67
2022/03/20 05:08:18;;;;;;;12.27;4.97;;;;;;;;;;4969347;28;20055;-67
2022/03/20 05:13:40;;;;;;;10.38;4.25;;;;;;;;;;4969395;28;20443;-67
2022/03/20 05:16:11;;;;;;;10.80;4.38;;;;;;;;;;4969256;28;20150;-67
2022/03/20 05:18:41;;;;;;;8.50;3.65;;;;;;;;;;4937463;28;20051;-67
2022/03/20 05:21:14;;;;;;;9.15;4.60;;;;;;;;;;4969246;28;20081;-67
2022/03/20 05:23:46;;;;;;;7.50;4.15;;;;;;;;;;4930520;29;20094;-67
2022/03/20 05:26:19;;;;;;;9.70;4.25;;;;;;;;;;4886394;29;20052;-67
2022/03/20 05:28:49;;;;;;;7.60;4.18;;;;;;;;;;4934493;29;20064;-67
2022/03/20 05:31:20;;;;;;;8.10;3.35;;;;;;;;;;4936718;29;20056;-67
2022/03/20 05:33:54;;;;;;;12.18;4.15;;;;;;;;;;4907733;29;20059;-67
2022/03/20 05:36:29;;;;;;;8.50;4.30;;;;;;;;;;4953378;29;20055;-67
2022/03/20 05:39:01;;;;;;;9.20;4.20;;;;;;;;;;4939555;28;20056;-67
2022/03/20 05:41:46;;;;;;;9.18;4.13;;;;;;;;;;4972305;28;20062;-67
2022/03/20 05:44:20;;;;;;;9.02;4.25;;;;;;;;;;4941524;28;20066;-67
2022/03/20 05:46:54;;;;;;;9.77;4.45;;;;;;;;;;4972913;28;20058;-67
2022/03/20 05:49:24;;;;;;;8.05;3.90;;;;;;;;;;4941196;28;20059;-67
2022/03/20 05:51:57;;;;;;;8.90;4.68;;;;;;;;;;4972519;28;20055;-67
2022/03/20 05:54:29;;;;;;;8.35;3.78;;;;;;;;;;4956289;28;20058;-67
2022/03/20 05:59:54;;;;;;;11.07;4.25;;;;;;;;;;4952889;28;20058;-67
2022/03/20 06:02:24;;;;;;;;;;;;;;;;;;4971263;28;20047;-67
2022/03/20 06:04:55;;;;;;;7.47;3.17;;;;;;;;;;4952363;28;20481;-67
2022/03/20 06:07:26;;;;;;;10.45;3.70;;;;;;;;;;4952638;28;20062;-68
2022/03/20 06:09:56;;;;;;;8.23;3.85;;;;;;;;;;4921167;28;20640;-67
2022/03/20 06:12:26;;;;;;;6.97;3.65;;;;;;;;;;4936560;29;20070;-67
2022/03/20 06:14:57;;;;;;;10.35;4.35;;;;;;;;;;4933374;29;20054;-67
2022/03/20 06:17:31;;;;;;;8.52;3.72;;;;;;;;;;4919213;29;20047;-67
2022/03/20 06:20:07;;;;;;;8.18;4.13;;;;;;;;;;4901986;29;20121;-67
2022/03/20 06:22:38;;;;;;;10.32;4.20;;;;;;;;;;4933385;29;20428;-67
2022/03/20 06:25:09;;;;;;;9.25;3.90;;;;;;;;;;4914203;29;20060;-67
2022/03/20 06:27:45;;;;;;;10.27;4.30;;;;;;;;;;4914475;29;20592;-67
2022/03/20 06:30:19;;;;;;;9.75;3.95;;;;;;;;;;4882893;29;20052;-67
2022/03/20 06:32:52;;;;;;;7.80;4.20;;;;;;;;;;4914334;29;20433;-67
2022/03/20 06:35:22;;;;;;;7.88;3.75;;;;;;;;;;4918176;29;20056;-67
2022/03/20 06:37:57;;;;;;;10.05;4.10;;;;;;;;;;4958198;28;20058;-67
2022/03/20 06:40:29;;;;;;;8.63;4.45;;;;;;;;;;4971495;28;20062;-67
2022/03/20 06:43:01;;;;;;;12.10;4.10;;;;;;;;;;4952134;29;20063;-68
2022/03/20 06:45:31;;;;;;;8.85;3.92;;;;;;;;;;4935792;29;20070;-67
2022/03/20 06:48:04;;;;;;;;;;;;;;;;;;4917329;29;20413;-67
2022/03/20 06:50:35;;;;;;;9.82;4.22;;;;;;;;;;4932737;29;20666;-67
2022/03/20 06:53:06;;;;;;;10.90;4.63;;;;;;;;;;4946165;29;20059;-67
2022/03/20 06:55:36;;;;;;;7.43;3.85;;;;;;;;;;4913390;29;20060;-67
2022/03/20 06:58:07;;;;;;;10.77;4.50;;;;;;;;;;4907277;29;20059;-67
2022/03/20 07:00:41;;;;;;;10.77;4.15;;;;;;;;;;4913418;29;20059;-67
2022/03/20 07:03:13;;;;;;;8.32;4.10;;;;;;;;;;4901149;29;20060;-67
2022/03/20 07:05:48;;;;;;;7.50;4.03;;;;;;;;;;4894697;29;20203;-67
2022/03/20 07:08:23;;;;;;;7.63;3.92;;;;;;;;;;4894940;29;20068;-67
2022/03/20 07:10:55;;;;;;;10.48;4.20;;;;;;;;;;4894639;29;20056;-67
2022/03/20 07:16:21;;;;;;;7.15;3.92;;;;;;;;;;4894660;29;20067;-67
2022/03/20 07:18:54;;;;;;;9.85;3.88;;;;;;;;;;4894459;29;20060;-67
2022/03/20 07:21:28;;;;;;;7.50;3.78;;;;;;;;;;4909687;29;20059;-67
2022/03/20 07:23:58;;;;;;;6.70;3.35;;;;;;;;;;4913314;29;20056;-67
2022/03/20 07:29:30;;;;;;;7.13;3.58;;;;;;;;;;4932325;29;20070;-67
2022/03/20 07:32:06;;;;;;;8.15;3.90;;;;;;;;;;4932138;29;20443;-67
2022/03/20 07:34:39;;;;;;;8.07;3.28;;;;;;;;;;4932670;29;20115;-67
2022/03/20 07:37:15;;;;;;;8.02;3.72;;;;;;;;;;4952700;28;20055;-67
2022/03/20 07:39:53;;;;;;;12.70;3.67;;;;;;;;;;4990044;28;20063;-67
2022/03/20 07:42:26;;;;;;;6.95;3.30;;;;;;;;;;4970270;28;20047;-67
2022/03/20 07:44:59;;;;;;;7.13;3.17;;;;;;;;;;4954877;28;20323;-67
2022/03/20 07:47:29;;;;;;;6.97;3.40;;;;;;;;;;4954521;28;20058;-67
2022/03/20 07:50:07;;;;;;;7.57;3.13;;;;;;;;;;4969447;28;20062;-67
2022/03/20 07:52:41;;;;;;;15.88;3.65;;;;;;;;;;4970141;28;20055;-67
2022/03/20 07:55:18;;;;;;;9.52;4.00;;;;;;;;;;4970247;28;20054;-67
2022/03/20 07:57:48;;;;;;;8.38;2.97;;;;;;;;;;4980734;28;20057;-67
2022/03/20 08:00:19;;;;;;;9.85;3.65;;;;;;;;;;4969826;28;20051;-67
2022/03/20 08:02:55;;;;;;;10.20;3.15;;;;;;;;;;4970325;28;20392;-67
2022/03/20 08:05:27;;;;;;;8.75;3.22;;;;;;;;;;4931787;29;20063;-67
2022/03/20 08:08:00;;;;;;;6.00;3.05;;;;;;;;;;4931576;29;20063;-67
2022/03/20 08:10:32;;;;;;;10.18;3.42;;;;;;;;;;4931786;29;20396;-67
2022/03/20 08:13:05;;;;;;;10.40;3.30;;;;;;;;;;4962620;28;20062;-66
2022/03/20 08:15:39;;;;;;;8.05;3.58;;;;;;;;;;4970060;28;20511;-67
2022/03/20 08:18:09;;;;;;;;;;;;;;;;;;4954563;28;20062;-67
2022/03/20 08:20:42;;;;;;;6.97;3.28;;;;;;;;;;5014612;28;20432;-67
2022/03/20 08:23:15;;;;;;;11.10;3.72;;;;;;;;;;5028509;28;20057;-67
2022/03/20 08:25:48;;;;;;;7.30;3.55;;;;;;;;;;4963238;28;20045;-67
2022/03/20 08:28:19;;;;;;;;;;;;;;;;;;5013560;28;20083;-67
2022/03/20 08:30:54;;;;;;;8.80;3.53;;;;;;;;;;5028550;28;19974;-67
2022/03/20 08:33:27;;;;;;;6.85;3.42;;;;;;;;;;5028455;28;20061;-67
2022/03/20 08:35:58;;;;;;;9.13;3.33;;;;;;;;;;4969460;28;20058;-67
2022/03/20 08:38:28;;;;;;;12.63;3.55;;;;;;;;;;4996980;28;20046;-65
2022/03/20 08:40:59;;;;;;;8.85;3.28;;;;;;;;;;5008259;28;20069;-64
2022/03/20 08:43:31;;;;;;;5.90;2.47;;;;;;;;;;4959942;28;20644;-65
2022/03/20 08:46:01;;;;;;;6.97;3.35;;;;;;;;;;4988738;28;20062;-64
2022/03/20 08:48:31;;;;;;;8.65;3.47;;;;;;;;;;4988952;28;20063;-67
2022/03/20 08:51:02;;;;;;;5.85;2.95;;;;;;;;;;4985579;28;20063;-67
2022/03/20 08:53:33;;;;;;;6.20;2.75;;;;;;;;;;4921447;28;20077;-67
2022/03/20 08:56:06;;;;;;;;;;;;;;;;;;4969835;28;20062;-67
2022/03/20 08:58:39;;;;;;;6.80;2.90;;;;;;;;;;4986622;28;19922;-67
2022/03/20 09:01:09;;;;;;;6.10;3.05;;;;;;;;;;4991530;28;20126;-67
2022/03/20 09:03:40;;;;;;;9.25;3.40;;;;;;;;;;4992516;28;20043;-67
2022/03/20 09:06:12;;;;;;;5.72;2.83;;;;;;;;;;4988319;28;20058;-67
2022/03/20 09:08:43;;;;;;;9.38;2.97;;;;;;;;;;4953739;29;20066;-67
2022/03/20 09:11:14;;;;;;;12.20;3.20;;;;;;;;;;4973031;28;20081;-67
2022/03/20 09:13:45;;;;;;;7.15;2.97;;;;;;;;;;4972745;28;20062;-67
2022/03/20 09:19:10;;;;;;;8.57;3.05;;;;;;;;;;4928786;29;20252;-67
2022/03/20 09:21:42;;;;;;;5.60;2.72;;;;;;;;;;4934703;29;20164;-67
2022/03/20 09:24:12;;;;;;;3.60;1.73;;;;;;;;;;4948475;29;20055;-67
2022/03/20 09:26:47;;;;;;;9.52;3.70;;;;;;;;;;4941406;28;20523;-67
2022/03/20 09:29:19;;;;;;;12.38;3.08;;;;;;;;;;4940519;28;20632;-67
2022/03/20 09:31:50;;;;;;;5.10;2.63;;;;;;;;;;4957143;28;20058;-68
2022/03/20 09:34:20;;;;;;;7.13;2.95;;;;;;;;;;4953290;28;20055;-67
2022/03/20 09:36:50;;;;;;;9.25;2.85;;;;;;;;;;4953447;28;20063;-67
2022/03/20 09:39:23;;;;;;;6.38;3.05;;;;;;;;;;4933988;29;20075;-67
2022/03/20 09:41:56;;;;;;;6.95;2.60;;;;;;;;;;4918240;29;20096;-67
2022/03/20 09:44:27;;;;;;;8.05;2.70;;;;;;;;;;4902641;29;20087;-67
2022/03/20 09:46:57;;;;;;;5.75;2.30;;;;;;;;;;4902894;29;20051;-67
2022/03/20 09:49:29;;;;;;;8.40;2.78;;;;;;;;;;4914653;29;20421;-66
2022/03/20 09:52:06;;;;;;;7.50;2.88;;;;;;;;;;4915044;29;20560;-66
2022/03/20 09:54:37;;;;;;;7.07;2.95;;;;;;;;;;4899737;29;20057;-66
2022/03/20 09:57:10;;;;;;;4.03;1.88;;;;;;;;;;4895496;29;20048;-67
2022/03/20 09:59:41;;;;;;;6.43;2.42;;;;;;;;;;4914646;29;20110;-67
2022/03/20 10:02:13;;;;;;;4.88;2.20;;;;;;;;;;4914630;29;20059;-67
2022/03/20 10:04:59;;;;;;;4.90;2.30;;;;;;;;;;4914831;29;20513;-67
2022/03/20 10:07:36;;;;;;;7.53;2.35;;;;;;;;;;4914932;29;20068;-67
2022/03/20 10:10:09;;;;;;;5.95;2.25;;;;;;;;;;4914867;29;20067;-67
2022/03/20 10:12:49;;;;;;;6.45;2.08;;;;;;;;;;4929265;29;20056;-66
2022/03/20 10:15:52;;;;;;;7.88;2.28;;;;;;;;;;4915136;29;20087;-67
2022/03/20 10:18:28;;;;;;;3.90;1.88;;;;;;;;;;4907955;29;20416;-67
2022/03/20 10:20:59;;;;;;;4.55;2.10;;;;;;;;;;4936959;29;20059;-67
2022/03/20 10:23:36;;;;;;;4.60;2.15;;;;;;;;;;4905167;29;20795;-67
2022/03/20 10:26:09;;;;;;;5.60;2.42;;;;;;;;;;4952168;29;20408;-67
2022/03/20 10:28:42;;;;;;;4.53;2.25;;;;;;;;;;4952921;29;20055;-67
2022/03/20 10:31:17;;;;;;;10.77;2.33;;;;;;;;;;4954438;28;20063;-66
2022/03/20 10:34:09;;;;;;;4.13;2.00;;;;;;;;;;4957180;28;20060;-67
2022/03/20 10:36:44;;;;;;;4.68;2.00;;;;;;;;;;4983194;28;20053;-67
2022/03/20 10:39:19;;;;;;;8.90;1.92;;;;;;;;;;5010543;28;20054;-67
2022/03/20 10:41:54;;;;;;;5.78;2.30;;;;;;;;;;5010835;28;20057;-67
2022/03/20 10:44:38;;;;;;;3.92;2.10;;;;;;;;;;4956872;28;20157;-68
2022/03/20 10:47:18;;;;;;;5.40;1.95;;;;;;;;;;4956628;28;20059;-67
2022/03/20 10:50:07;;;;;;;5.82;2.15;;;;;;;;;;4936050;29;20059;-67
2022/03/20 10:52:39;;;;;;;5.32;2.28;;;;;;;;;;4905790;29;20054;-67
2022/03/20 10:55:15;;;;;;;5.53;2.33;;;;;;;;;;4952033;29;20059;-66
2022/03/20 10:57:47;;;;;;;5.43;2.13;;;;;;;;;;4952007;29;20051;-66
2022/03/20 11:00:21;;;;;;;7.25;2.10;;;;;;;;;;4890429;29;20050;-66
2022/03/20 11:02:52;;;;;;;3.78;1.63;;;;;;;;;;4951750;29;20059;-66
2022/03/20 11:05:26;;;;;;;4.63;2.10;;;;;;;;;;4936539;29;20055;-67
2022/03/20 11:07:58;;;;;;;4.53;2.10;;;;;;;;;;4951828;29;20062;-67
2022/03/20 11:10:30;;;;;;;3.53;1.60;;;;;;;;;;4920150;29;20060;-66
2022/03/20 11:13:02;;;;;;;5.32;1.55;;;;;;;;;;4913287;29;20471;-66
2022/03/20 11:15:37;;;;;;;4.70;2.20;;;;;;;;;;4913790;29;20064;-66
2022/03/20 11:18:15;;;;;;;7.20;2.58;;;;;;;;;;4936506;29;20062;-66
2022/03/20 11:20:46;;;;;;;6.13;2.28;;;;;;;;;;4951461;29;20055;-66
2022/03/20 11:23:18;;;;;;;4.70;1.88;;;;;;;;;;4916750;29;20685;-66
2022/03/20 11:25:55;;;;;;;7.30;2.78;;;;;;;;;;4913221;29;20056;-66
2022/03/20 11:28:38;;;;;;;;;;;;;;;;;;4911764;29;20089;-66
2022/03/20 11:31:10;;;;;;;5.57;2.47;;;;;;;;;;4912968;29;19930;-66
2022/03/20 11:33:43;;;;;;;;;;;;;;;;;;4913997;29;20060;-67
2022/03/20 11:36:20;;;;;;;4.50;1.85;;;;;;;;;;4912936;29;19923;-66
2022/03/20 11:39:13;;;;;;;8.65;1.85;;;;;;;;;;4897724;29;20055;-66
2022/03/20 11:41:46;;;;;;;5.18;2.17;;;;;;;;;;4932529;29;20698;-66
2022/03/20 11:44:22;;;;;;;7.15;2.28;;;;;;;;;;4893687;29;20044;-66
2022/03/20 11:47:19;;;;;;;4.63;1.98;;;;;;;;;;4878197;29;20048;-66
2022/03/20 11:50:15;;;;;;;6.03;2.05;;;;;;;;;;4894224;29;20416;-66
2022/03/20 11:52:53;;;;;;;5.55;1.75;;;;;;;;;;4880837;29;20047;-66
2022/03/20 11:55:38;;;;;;;4.07;1.88;;;;;;;;;;4912776;29;20806;-66
2022/03/20 11:58:21;;;;;;;3.88;1.77;;;;;;;;;;4865744;29;20128;-66
2022/03/20 12:01:04;;;;;;;3.08;1.60;;;;;;;;;;4921332;29;20051;-66
2022/03/20 12:03:50;;;;;;;3.88;1.98;;;;;;;;;;4931673;29;20047;-66
2022/03/20 12:06:39;;;;;;;8.13;2.10;;;;;;;;;;4942857;29;20066;-67
2022/03/20 12:09:44;;;;;;;6.45;1.92;;;;;;;;;;4950913;29;20070;-66
2022/03/20 12:12:37;;;;;;;5.88;2.47;;;;;;;;;;4893739;29;20060;-66
2022/03/20 12:15:20;;;;;;;4.63;2.22;;;;;;;;;;4931149;29;20052;-66
2022/03/20 12:18:08;;;;;;;6.47;2.53;;;;;;;;;;4931315;29;20051;-66
2022/03/20 12:21:09;;;;;;;5.50;1.95;;;;;;;;;;4929900;29;20500;-66
2022/03/20 12:23:43;;;;;;;6.40;2.13;;;;;;;;;;4893669;29;20101;-66
2022/03/20 12:26:31;;;;;;;8.25;2.78;;;;;;;;;;4905768;29;20052;-66
2022/03/20 12:29:31;;;;;;;5.07;2.28;;;;;;;;;;4874838;29;20068;-67
2022/03/20 12:32:15;;;;;;;4.47;2.80;;;;;;;;;;4912657;29;20504;-66
2022/03/20 12:35:07;;;;;;;5.55;2.92;;;;;;;;;;4896184;29;20056;-66
2022/03/20 12:37:40;;;;;;;11.02;2.33;;;;;;;;;;4862709;29;20064;-66
2022/03/20 12:40:29;;;;;;;5.72;2.22;;;;;;;;;;4895901;29;20096;-66
2022/03/20 12:43:22;;;;;;;6.55;2.42;;;;;;;;;;4937622;29;20437;-66
2022/03/20 12:45:54;;;;;;;6.38;1.52;;;;;;;;;;4912221;29;20052;-65
2022/03/20 12:48:32;;;;;;;6.10;2.30;;;;;;;;;;4939215;29;20535;-66
2022/03/20 12:51:11;;;;;;;11.45;2.20;;;;;;;;;;4950550;29;20499;-66
2022/03/20 12:53:46;;;;;;;20.58;6.68;;;;;;;;;;4951466;28;20051;-66
2022/03/20 12:58:54;;;;;;;6.38;2.88;;;;;;;;;;4949932;29;20475;-66
2022/03/20 13:01:26;;;;;;;6.10;2.90;;;;;;;;;;4934618;29;20514;-66
2022/03/20 13:03:58;;;;;;;5.82;3.08;;;;;;;;;;4950230;29;20066;-66
2022/03/20 13:06:30;;;;;;;4.50;2.17;;;;;;;;;;4950620;29;20063;-67
2022/03/20 13:09:12;;;;;;;5.30;2.88;;;;;;;;;;4881033;29;20056;-67
2022/03/20 13:11:48;;;;;;;5.53;2.60;;;;;;;;;;4912068;29;20524;-66
2022/03/20 13:14:23;;;;;;;9.05;2.03;;;;;;;;;;4916753;28;20054;-66
2022/03/20 13:17:02;;;;;;;13.63;5.72;;;;;;;;;;4988730;28;20063;-66
2022/03/20 13:19:38;;;;;;;13.60;7.22;;;;;;;;;;4914530;28;20058;-66
2022/03/20 13:22:13;;;;;;;16.02;5.97;;;;;;;;;;5027252;28;20056;-66
2022/03/20 13:24:49;;;;;;;12.05;5.32;;;;;;;;;;4988706;28;20054;-66
2022/03/20 13:27:19;;;;;;;10.90;5.60;;;;;;;;;;4999804;28;20125;-66
2022/03/20 13:29:55;;;;;;;8.18;4.55;;;;;;;;;;4979044;28;20058;-67
2022/03/20 13:32:25;;;;;;;7.25;2.67;;;;;;;;;;5008078;28;20053;-66
2022/03/20 13:34:57;;;;;;;8.07;3.47;;;;;;;;;;5008099;28;20058;-66
2022/03/20 13:37:28;;;;;;;5.45;2.80;;;;;;;;;;5008256;28;20057;-66
2022/03/20 13:40:03;;;;;;;7.18;2.20;;;;;;;;;;5025141;28;20057;-70
2022/03/20 13:42:39;;;;;;;5.03;2.65;;;;;;;;;;4983115;28;20509;-72
2022/03/20 13:45:11;;;;;;;5.40;2.40;;;;;;;;;;5047529;28;20133;-69
2022/03/20 13:47:42;;;;;;;6.20;3.00;;;;;;;;;;5016132;28;20057;-69
2022/03/20 13:50:14;;;;;;;6.72;2.70;;;;;;;;;;5035316;28;20444;-72
2022/03/20 13:52:50;;;;;;;10.75;5.03;;;;;;;;;;5002837;28;20067;-69
2022/03/20 13:55:23;;;;;;;5.75;2.88;;;;;;;;;;5035586;28;20064;-72
2022/03/20 13:58:00;;;;;;;;;;;;;;;;;;5051397;28;20405;-72
2022/03/20 14:00:35;;;;;;;5.53;3.10;;;;;;;;;;5019079;28;19928;-68
2022/03/20 14:03:08;;;;;;;7.20;2.72;;;;;;;;;;5084608;28;20052;-72
2022/03/20 14:05:52;;;;;;;5.90;3.22;;;;;;;;;;5091426;28;20519;-69
2022/03/20 14:08:23;;;;;;;5.72;2.60;;;;;;;;;;5050981;28;20170;-67
2022/03/20 14:11:05;;;;;;;4.88;2.65;;;;;;;;;;5068760;28;20065;-67
2022/03/20 14:13:44;;;;;;;6.63;2.45;;;;;;;;;;5071001;28;20048;-70
2022/03/20 14:16:18;;;;;;;7.95;2.75;;;;;;;;;;5070656;28;20774;-68
2022/03/20 14:18:49;;;;;;;7.72;2.70;;;;;;;;;;5070753;28;20520;-69
2022/03/20 14:21:22;;;;;;;4.72;2.55;;;;;;;;;;5021126;28;20552;-66
2022/03/20 14:23:58;;;;;;;7.35;3.30;;;;;;;;;;5054247;28;20053;-68
2022/03/20 14:26:35;;;;;;;5.45;2.78;;;;;;;;;;5070983;28;20064;-69
2022/03/20 14:41:21;;;;;;;5.40;2.28;;;;;;;;;;5050426;28;20148;-67
2022/03/20 14:44:07;;;;;;;4.30;2.17;;;;;;;;;;5014714;28;20049;-67
2022/03/20 14:46:39;;;;;;;6.18;2.97;;;;;;;;;;5032987;28;20055;-66
2022/03/20 14:49:11;;;;;;;6.40;2.33;;;;;;;;;;5030033;28;20038;-67
2022/03/20 14:51:46;;;;;;;5.10;2.45;;;;;;;;;;4981629;28;20061;-66
2022/03/20 14:54:19;;;;;;;7.43;2.72;;;;;;;;;;4980382;28;20057;-67
2022/03/20 14:56:49;;;;;;;5.03;2.67;;;;;;;;;;5010286;28;20058;-67
2022/03/20 14:59:21;;;;;;;5.68;2.90;;;;;;;;;;5009936;28;20053;-67
2022/03/20 15:01:52;;;;;;;6.85;3.17;;;;;;;;;;5010322;28;20122;-69
2022/03/20 15:04:25;;;;;;;4.30;2.42;;;;;;;;;;4977952;28;20465;-67
2022/03/20 15:06:58;;;;;;;6.93;2.20;;;;;;;;;;5010129;28;20054;-67
2022/03/20 15:12:19;;;;;;;5.82;2.55;;;;;;;;;;4977831;28;20449;-67
2022/03/20 15:14:53;;;;;;;5.65;2.35;;;;;;;;;;4993610;28;20049;-69
2022/03/20 15:17:23;;;;;;;6.93;2.42;;;;;;;;;;5010194;28;20054;-68
2022/03/20 15:19:57;;;;;;;4.53;2.55;;;;;;;;;;5010136;28;20053;-67
2022/03/20 15:22:27;;;;;;;4.80;2.35;;;;;;;;;;5027165;28;20064;-66
2022/03/20 15:24:59;;;;;;;3.88;2.17;;;;;;;;;;5029918;28;20045;-67
2022/03/20 15:27:29;;;;;;;6.05;2.10;;;;;;;;;;5016164;28;20408;-66
2022/03/20 15:30:01;;;;;;;5.93;2.92;;;;;;;;;;5053520;28;20041;-67
2022/03/20 15:32:37;;;;;;;4.15;2.20;;;;;;;;;;5071972;28;20051;-67
2022/03/20 15:35:11;;;;;;;5.05;2.13;;;;;;;;;;5070708;28;20366;-70
2022/03/20 15:37:41;;;;;;;4.57;2.08;;;;;;;;;;5070501;28;20049;-68
2022/03/20 15:40:15;;;;;;;5.13;2.40;;;;;;;;;;5071438;28;20393;-68
2022/03/20 15:42:49;;;;;;;3.38;2.00;;;;;;;;;;5052870;28;20508;-67
2022/03/20 15:45:21;;;;;;;4.30;2.13;;;;;;;;;;5053059;28;20053;-67
2022/03/20 15:47:51;;;;;;;5.18;2.00;;;;;;;;;;5071377;28;20044;-66
2022/03/20 15:50:21;;;;;;;4.90;2.00;;;;;;;;;;5071246;28;20044;-67
2022/03/20 15:52:55;;;;;;;5.05;2.15;;;;;;;;;;5052410;28;20746;-67
2022/03/20 15:55:28;;;;;;;4.63;2.13;;;;;;;;;;5071276;28;20048;-67
2022/03/20 15:58:02;;;;;;;3.83;2.03;;;;;;;;;;5028540;28;20056;-67
2022/03/20 16:00:32;;;;;;;3.08;1.77;;;;;;;;;;5029033;28;20064;-66
2022/03/20 16:03:05;;;;;;;4.55;2.13;;;;;;;;;;5029028;28;20060;-65
2022/03/20 16:05:37;;;;;;;4.28;2.13;;;;;;;;;;5028902;28;20433;-68
2022/03/20 16:08:08;;;;;;;3.88;1.80;;;;;;;;;;5028946;28;20061;-68
2022/03/20 16:10:39;;;;;;;3.88;2.03;;;;;;;;;;4979070;28;20057;-68
2022/03/20 16:13:13;;;;;;;5.18;1.98;;;;;;;;;;5028722;28;20053;-68